createdAt,value
2023-11-28T16:21:53.372Z,3.47
2023-11-28T16:22:53.413Z,3.44
2023-11-28T16:23:53.415Z,3.49
2023-11-28T16:24:53.439Z,3.61
2023-11-28T16:25:53.501Z,3.58
2023-11-28T16:26:53.638Z,3.54
2023-11-28T16:27:53.550Z,3.49
2023-11-28T16:28:53.640Z,3.58
2023-11-28T16:29:53.633Z,3.49
2023-11-28T16:30:53.729Z,3.49
2023-11-28T16:31:53.759Z,3.49
2023-11-28T16:32:53.856Z,3.49
2023-11-28T16:33:53.800Z,3.44
2023-11-28T16:34:53.857Z,3.54
2023-11-28T16:35:53.861Z,3.52
2023-11-28T16:36:53.935Z,3.49
2023-11-28T16:37:54.085Z,3.46
2023-11-28T16:38:54.007Z,3.36
2023-11-28T16:39:54.016Z,3.36
2023-11-28T16:40:54.079Z,3.47
2023-11-28T16:41:54.120Z,3.47
2023-11-28T16:42:54.148Z,3.36
2023-11-28T16:43:54.210Z,3.36
2023-11-28T16:44:54.243Z,3.34
2023-11-28T16:45:54.246Z,3.42
2023-11-28T16:46:54.359Z,3.42
2023-11-28T16:47:54.416Z,3.44
2023-11-28T16:48:54.362Z,3.36
2023-11-28T16:49:55.413Z,3.42
2023-11-28T16:50:54.482Z,3.40
2023-11-28T16:51:54.479Z,3.40
2023-11-28T16:52:54.588Z,3.42
2023-11-28T16:53:54.551Z,3.39
2023-11-28T16:54:54.631Z,3.39
2023-11-28T16:55:54.690Z,3.33
2023-11-28T16:56:54.709Z,3.39
2023-11-28T16:57:54.717Z,3.39
2023-11-28T16:58:54.806Z,3.34
2023-11-28T16:59:54.795Z,3.30
2023-11-28T17:00:54.856Z,3.34
2023-11-28T17:01:55.004Z,3.31
2023-11-28T17:02:55.021Z,3.33
2023-11-28T17:03:55.015Z,3.46
2023-11-28T17:04:55.060Z,3.40
2023-11-28T17:05:55.029Z,3.33
2023-11-28T17:06:55.074Z,3.44
2023-11-28T17:07:55.141Z,3.40
2023-11-28T17:08:55.158Z,3.39
2023-11-28T17:09:55.221Z,3.34
2023-11-28T17:10:55.252Z,3.39
2023-11-28T17:11:55.259Z,3.36
2023-11-28T17:12:55.333Z,3.36
2023-11-28T17:13:56.969Z,3.31
2023-11-28T17:14:55.392Z,3.33
2023-11-28T17:15:55.477Z,3.36
2023-11-28T17:16:55.514Z,3.42
2023-11-28T17:17:55.571Z,3.36
2023-11-28T17:18:55.579Z,3.36
2023-11-28T17:19:55.638Z,3.42
2023-11-28T17:20:55.634Z,3.40
2023-11-28T17:21:55.646Z,3.34
2023-11-28T17:22:55.731Z,3.31
2023-11-28T17:23:55.771Z,3.43
2023-11-28T17:24:55.778Z,3.36
2023-11-28T17:25:55.868Z,3.34
2023-11-28T17:26:55.864Z,3.36
2023-11-28T17:27:55.904Z,3.36
2023-11-28T17:28:56.110Z,3.28
2023-11-28T17:29:55.980Z,3.24
2023-11-28T17:30:56.087Z,3.23
2023-11-28T17:31:56.073Z,3.21
2023-11-28T17:32:56.193Z,3.24
2023-11-28T17:33:56.148Z,3.18
2023-11-28T17:34:56.249Z,3.30
2023-11-28T17:35:56.298Z,3.20
2023-11-28T17:36:56.288Z,3.18
2023-11-28T17:37:56.499Z,3.33
2023-11-28T17:38:56.321Z,3.28
2023-11-28T17:39:56.404Z,3.20
2023-11-28T17:40:56.459Z,3.20
2023-11-28T17:41:56.445Z,3.30
2023-11-28T17:42:56.482Z,3.21
2023-11-28T17:43:56.544Z,3.24
2023-11-28T17:44:56.610Z,3.21
2023-11-28T17:45:56.617Z,3.21
2023-11-28T17:46:56.675Z,3.31
2023-11-28T17:47:56.764Z,3.20
2023-11-28T17:48:56.738Z,3.23
2023-11-28T17:49:56.835Z,3.24
2023-11-28T17:50:56.812Z,3.21
2023-11-28T17:51:56.860Z,3.27
2023-11-28T17:52:56.901Z,3.24
2023-11-28T17:53:57.733Z,3.18
2023-11-28T17:54:56.970Z,3.23
2023-11-28T17:55:57.074Z,3.20
2023-11-28T17:56:57.885Z,3.20
2023-11-28T17:57:57.071Z,3.21
2023-11-28T17:58:57.128Z,3.20
2023-11-28T17:59:57.150Z,3.20
2023-11-28T18:00:57.218Z,3.12
2023-11-28T18:01:57.350Z,3.30
2023-11-28T18:02:57.354Z,3.24
2023-11-28T18:03:57.396Z,3.27
2023-11-28T18:04:57.386Z,3.25
2023-11-28T18:05:57.395Z,3.30
2023-11-28T18:06:59.367Z,3.24
2023-11-28T18:07:57.514Z,3.21
2023-11-28T18:08:57.519Z,3.21
2023-11-28T18:09:57.572Z,3.21
2023-11-28T18:10:57.626Z,3.21
2023-11-28T18:11:57.628Z,3.20
2023-11-28T18:12:57.652Z,3.20
2023-11-28T18:13:57.709Z,3.16
2023-11-28T18:14:57.780Z,3.16
2023-11-28T18:15:57.778Z,3.20
2023-11-28T18:16:57.837Z,3.10
2023-11-28T18:17:57.936Z,3.09
2023-11-28T18:18:58.226Z,3.09
2023-11-28T18:19:58.005Z,3.13
2023-11-28T18:20:58.892Z,3.02
2023-11-28T18:21:58.010Z,3.12
2023-11-28T18:22:58.125Z,3.03
2023-11-28T18:23:58.089Z,3.07
2023-11-28T18:24:58.171Z,3.16
2023-11-28T18:25:58.172Z,3.05
2023-11-28T18:26:58.204Z,3.18
2023-11-28T18:27:58.811Z,3.18
2023-11-28T18:28:58.370Z,3.13
2023-11-28T18:29:58.356Z,3.16
2023-11-28T18:30:58.362Z,3.18
2023-11-28T18:31:58.525Z,3.12
2023-11-28T18:32:58.540Z,3.15
2023-11-28T18:33:58.483Z,3.10
2023-11-28T18:34:58.670Z,3.18
2023-11-28T18:35:58.602Z,3.25
2023-11-28T18:36:58.630Z,3.27
2023-11-28T18:37:58.710Z,3.23
2023-11-28T18:39:58.784Z,3.07
2023-11-28T18:40:58.822Z,3.23
2023-11-28T18:41:58.803Z,3.13
2023-11-28T18:42:58.862Z,3.13
2023-11-28T18:43:58.927Z,3.20
2023-11-28T18:44:58.946Z,3.13
2023-11-28T18:45:58.994Z,3.13
2023-11-28T18:46:59.081Z,3.10
2023-11-28T18:47:59.095Z,3.18
2023-11-28T18:48:59.073Z,3.09
2023-11-28T18:49:59.153Z,3.00
2023-11-28T18:50:59.170Z,3.00
2023-11-28T18:51:59.226Z,3.06
2023-11-28T18:52:59.262Z,3.03
2023-11-28T18:53:59.285Z,3.00
2023-11-28T18:54:59.305Z,3.00
2023-11-28T18:55:59.378Z,3.13
2023-11-28T18:56:59.431Z,3.15
2023-11-28T18:57:59.440Z,3.16
2023-11-28T18:59:00.413Z,3.18
2023-11-28T18:59:59.520Z,3.15
2023-11-28T19:00:59.540Z,3.18
2023-11-28T19:01:59.882Z,3.20
2023-11-28T19:02:59.776Z,3.18
2023-11-28T19:03:59.732Z,3.18
2023-11-28T19:04:59.744Z,3.25
2023-11-28T19:05:59.760Z,3.16
2023-11-28T19:06:59.858Z,3.27
2023-11-28T19:07:59.885Z,3.27
2023-11-28T19:08:59.920Z,3.25
2023-11-28T19:09:59.915Z,3.33
2023-11-28T19:10:59.970Z,3.24
2023-11-28T19:11:59.976Z,3.34
2023-11-28T19:13:00.035Z,3.20
2023-11-28T19:14:00.126Z,3.24
2023-11-28T19:15:00.139Z,3.28
2023-11-28T19:16:00.287Z,3.39
2023-11-28T19:17:00.251Z,3.36
2023-11-28T19:18:00.294Z,3.39
2023-11-28T19:19:00.257Z,3.39
2023-11-28T19:20:00.444Z,3.30
2023-11-28T19:21:00.343Z,3.30
2023-11-28T19:22:00.388Z,3.33
2023-11-28T19:23:00.448Z,3.34
2023-11-28T19:24:00.478Z,3.28
2023-11-28T19:25:00.525Z,3.18
2023-11-28T19:26:00.593Z,3.16
2023-11-28T19:27:00.560Z,3.16
2023-11-28T19:28:00.615Z,3.02
2023-11-28T19:29:00.682Z,3.07
2023-11-28T19:30:00.720Z,2.98
2023-11-28T19:31:00.778Z,2.97
2023-11-28T19:32:00.947Z,2.98
2023-11-28T19:33:00.930Z,3.06
2023-11-28T19:34:00.857Z,3.02
2023-11-28T19:35:00.919Z,3.15
2023-11-28T19:36:00.972Z,3.12
2023-11-28T19:37:00.973Z,3.02
2023-11-28T19:38:01.108Z,3.07
2023-11-28T19:39:01.077Z,3.12
2023-11-28T19:40:01.124Z,3.10
2023-11-28T19:41:01.188Z,3.12
2023-11-28T19:42:01.277Z,3.12
2023-11-28T19:43:01.281Z,3.18
2023-11-28T19:44:01.266Z,3.16
2023-11-28T19:45:01.425Z,3.16
2023-11-28T19:46:04.826Z,3.18
2023-11-28T19:47:01.943Z,3.21
2023-11-28T19:48:01.429Z,3.23
2023-11-28T19:49:01.441Z,3.18
2023-11-28T19:50:01.504Z,3.23
2023-11-28T19:51:01.680Z,3.24
2023-11-28T19:52:01.565Z,3.24
2023-11-28T19:53:01.643Z,3.20
2023-11-28T19:54:01.652Z,3.21
2023-11-28T19:55:01.688Z,3.24
2023-11-28T19:56:01.784Z,3.25
2023-11-28T19:57:01.748Z,3.27
2023-11-28T19:58:01.794Z,3.25
2023-11-28T19:59:01.895Z,3.27
2023-11-28T20:00:01.884Z,3.33
2023-11-28T20:01:01.944Z,3.40
2023-11-28T20:02:02.115Z,3.42
2023-11-28T20:03:02.148Z,3.39
2023-11-28T20:04:02.082Z,3.39
2023-11-28T20:05:02.120Z,3.53
2023-11-28T20:06:02.132Z,3.49
2023-11-28T20:07:02.179Z,3.39
2023-11-28T20:08:02.241Z,3.40
2023-11-28T20:09:02.279Z,3.42
2023-11-28T20:10:04.526Z,3.31
2023-11-28T20:11:02.363Z,3.34
2023-11-28T20:12:02.357Z,3.34
2023-11-28T20:13:02.407Z,3.50
2023-11-28T20:14:02.526Z,3.50
2023-11-28T20:15:02.472Z,3.52
2023-11-28T20:16:03.428Z,3.43
2023-11-28T20:17:02.732Z,3.40
2023-11-28T20:18:02.604Z,3.39
2023-11-28T20:19:02.627Z,3.34
2023-11-28T20:20:02.822Z,3.46
2023-11-28T20:21:02.755Z,3.50
2023-11-28T20:22:02.740Z,3.43
2023-11-28T20:23:02.810Z,3.39
2023-11-28T20:24:02.842Z,3.47
2023-11-28T20:25:02.884Z,3.54
2023-11-28T20:26:02.977Z,3.53
2023-11-28T20:27:02.964Z,3.39
2023-11-28T20:28:02.984Z,3.34
2023-11-28T20:29:03.068Z,3.39
2023-11-28T20:30:03.116Z,3.36
2023-11-28T20:31:03.193Z,3.30
2023-11-28T20:32:03.191Z,3.33
2023-11-28T20:33:03.235Z,3.25
2023-11-28T20:34:03.263Z,3.33
2023-11-28T20:35:03.305Z,3.36
2023-11-28T20:36:03.305Z,3.36
2023-11-28T20:37:14.088Z,3.40
2023-11-28T20:38:03.386Z,3.33
2023-11-28T20:39:03.479Z,3.40
2023-11-28T20:40:03.473Z,3.39
2023-11-28T20:41:03.545Z,3.31
2023-11-28T20:42:03.555Z,3.33
2023-11-28T20:43:03.586Z,3.39
2023-11-28T20:44:03.669Z,3.33
2023-11-28T20:45:03.685Z,3.33
2023-11-28T20:46:03.789Z,3.31
2023-11-28T20:47:03.748Z,3.30
2023-11-28T20:48:03.792Z,3.28
2023-11-28T20:49:03.855Z,3.36
2023-11-28T20:50:03.908Z,3.39
2023-11-28T20:51:03.897Z,3.33
2023-11-28T20:52:03.962Z,3.42
2023-11-28T20:53:04.117Z,3.34
2023-11-28T20:54:04.026Z,3.34
2023-11-28T20:55:04.087Z,3.40
2023-11-28T20:56:04.151Z,3.39
2023-11-28T20:57:04.139Z,3.30
2023-11-28T20:58:04.217Z,3.31
2023-11-28T20:59:04.254Z,3.27
2023-11-28T21:00:04.291Z,3.20
2023-11-28T21:01:04.361Z,3.13
2023-11-28T21:02:04.458Z,3.18
2023-11-28T21:03:04.415Z,3.16
2023-11-28T21:04:04.418Z,3.21
2023-11-28T21:05:05.500Z,3.16
2023-11-28T21:06:04.629Z,3.15
2023-11-28T21:07:04.597Z,3.16
2023-11-28T21:08:04.610Z,3.10
2023-11-28T21:09:04.622Z,3.06
2023-11-28T21:10:04.657Z,3.02
2023-11-28T21:11:04.781Z,3.03
2023-11-28T21:12:04.739Z,3.13
2023-11-28T21:13:04.771Z,3.09
2023-11-28T21:14:04.907Z,3.16
2023-11-28T21:15:04.853Z,3.24
2023-11-28T21:16:04.916Z,3.21
2023-11-28T21:17:05.029Z,3.20
2023-11-28T21:18:05.023Z,3.20
2023-11-28T21:19:05.018Z,3.18
2023-11-28T21:20:05.074Z,3.20
2023-11-28T21:21:05.119Z,3.23
2023-11-28T21:22:05.201Z,3.21
2023-11-28T21:23:05.173Z,3.27
2023-11-28T21:24:05.203Z,3.27
2023-11-28T21:25:05.258Z,3.28
2023-11-28T21:26:05.343Z,3.25
2023-11-28T21:27:05.359Z,3.28
2023-11-28T21:28:05.370Z,3.31
2023-11-28T21:29:05.415Z,3.13
2023-11-28T21:30:05.486Z,3.21
2023-11-28T21:31:05.504Z,3.23
2023-11-28T21:32:05.628Z,3.27
2023-11-28T21:33:05.613Z,3.18
2023-11-28T21:34:05.603Z,3.18
2023-11-28T21:35:05.697Z,3.23
2023-11-28T21:36:05.688Z,3.16
2023-11-28T21:37:05.751Z,3.13
2023-11-28T21:38:05.819Z,3.12
2023-11-28T21:39:05.833Z,3.09
2023-11-28T21:40:05.855Z,3.10
2023-11-28T21:41:05.915Z,3.16
2023-11-28T21:42:05.920Z,3.16
2023-11-28T21:43:05.951Z,3.24
2023-11-28T21:44:06.063Z,3.18
2023-11-28T21:45:06.040Z,3.28
2023-11-28T21:46:06.104Z,3.20
2023-11-28T21:47:06.239Z,3.31
2023-11-28T21:48:15.557Z,3.40
2023-11-28T21:49:06.224Z,3.40
2023-11-28T21:50:10.169Z,3.34
2023-11-28T21:51:06.301Z,3.34
2023-11-28T21:52:06.310Z,3.47
2023-11-28T21:53:06.394Z,3.39
2023-11-28T21:54:06.385Z,3.52
2023-11-28T21:55:06.456Z,3.52
2023-11-28T21:56:06.529Z,3.57
2023-11-28T21:57:06.506Z,3.49
2023-11-28T21:58:06.540Z,3.39
2023-11-28T21:59:06.625Z,3.39
2023-11-28T22:00:06.622Z,3.36
2023-11-28T22:01:06.687Z,3.39
2023-11-28T22:02:06.772Z,3.34
2023-11-28T22:03:06.912Z,3.42
2023-11-28T22:04:06.833Z,3.33
2023-11-28T22:05:06.840Z,3.46
2023-11-28T22:06:06.872Z,3.33
2023-11-28T22:07:06.904Z,3.40
2023-11-28T22:08:06.999Z,3.40
2023-11-28T22:09:07.069Z,3.40
2023-11-28T22:10:07.031Z,3.43
2023-11-28T22:11:07.119Z,3.34
2023-11-28T22:12:07.091Z,3.39
2023-11-28T22:13:07.136Z,3.34
2023-11-28T22:14:07.212Z,3.40
2023-11-28T22:15:08.805Z,3.36
2023-11-28T22:16:07.339Z,3.40
2023-11-28T22:17:07.334Z,3.42
2023-11-28T22:18:07.363Z,3.44
2023-11-28T22:19:07.403Z,3.39
2023-11-28T22:20:07.458Z,3.39
2023-11-28T22:21:07.495Z,3.42
2023-11-28T22:22:07.521Z,3.34
2023-11-28T22:23:07.552Z,3.43
2023-11-28T22:24:07.569Z,3.33
2023-11-28T22:25:07.620Z,3.40
2023-11-28T22:26:07.674Z,3.36
2023-11-28T22:27:07.719Z,3.31
2023-11-28T22:28:07.725Z,3.34
2023-11-28T22:29:07.824Z,3.36
2023-11-28T22:30:07.818Z,3.30
2023-11-28T22:31:07.919Z,3.33
2023-11-28T22:32:07.944Z,3.25
2023-11-28T22:33:08.000Z,3.21
2023-11-28T22:34:07.974Z,3.21
2023-11-28T22:35:08.107Z,3.30
2023-11-28T22:36:08.038Z,3.18
2023-11-28T22:37:08.090Z,3.24
2023-11-28T22:38:08.175Z,3.20
2023-11-28T22:39:08.175Z,3.25
2023-11-28T22:40:08.242Z,3.27
2023-11-28T22:41:08.310Z,3.28
2023-11-28T22:42:08.306Z,3.21
2023-11-28T22:43:08.313Z,3.25
2023-11-28T22:44:08.383Z,3.30
2023-11-28T22:45:08.402Z,3.27
2023-11-28T22:46:08.480Z,3.36
2023-11-28T22:47:08.562Z,3.34
2023-11-28T22:48:08.631Z,3.33
2023-11-28T22:49:08.563Z,3.34
2023-11-28T22:50:08.647Z,3.39
2023-11-28T22:51:08.667Z,3.31
2023-11-28T22:52:08.674Z,3.39
2023-11-28T22:53:08.810Z,3.40
2023-11-28T22:54:08.757Z,3.31
2023-11-28T22:55:08.798Z,3.31
2023-11-28T22:56:08.841Z,3.36
2023-11-28T22:57:08.864Z,3.39
2023-11-28T22:58:08.949Z,3.34
2023-11-28T22:59:08.982Z,3.34
2023-11-28T23:00:08.998Z,3.34
2023-11-28T23:01:09.034Z,3.30
2023-11-28T23:02:09.259Z,3.30
2023-11-28T23:03:09.275Z,3.31
2023-11-28T23:04:09.149Z,3.25
2023-11-28T23:05:09.206Z,3.30
2023-11-28T23:06:09.232Z,3.34
2023-11-28T23:07:09.300Z,3.25
2023-11-28T23:08:09.404Z,3.24
2023-11-28T23:09:09.343Z,3.27
2023-11-28T23:10:09.447Z,3.27
2023-11-28T23:11:09.457Z,3.21
2023-11-28T23:12:09.459Z,3.21
2023-11-28T23:13:09.506Z,3.23
2023-11-28T23:14:09.579Z,3.31
2023-11-28T23:15:09.598Z,3.28
2023-11-28T23:16:09.653Z,3.25
2023-11-28T23:17:09.675Z,3.30
2023-11-28T23:18:09.783Z,3.30
2023-11-28T23:19:09.740Z,3.23
2023-11-28T23:20:09.818Z,3.31
2023-11-28T23:21:09.872Z,3.28
2023-11-28T23:22:09.896Z,3.33
2023-11-28T23:23:09.918Z,3.27
2023-11-28T23:24:09.935Z,3.27
2023-11-28T23:25:09.984Z,3.33
2023-11-28T23:26:10.066Z,3.34
2023-11-28T23:27:10.054Z,3.34
2023-11-28T23:28:10.084Z,3.34
2023-11-28T23:29:10.234Z,3.27
2023-11-28T23:30:10.169Z,3.34
2023-11-28T23:31:10.308Z,3.33
2023-11-28T23:32:10.276Z,3.36
2023-11-28T23:33:10.365Z,3.39
2023-11-28T23:34:10.321Z,3.31
2023-11-28T23:35:10.489Z,3.36
2023-11-28T23:36:10.454Z,3.42
2023-11-28T23:37:10.445Z,3.33
2023-11-28T23:38:10.526Z,3.31
2023-11-28T23:39:10.524Z,3.33
2023-11-28T23:40:10.566Z,3.30
2023-11-28T23:41:10.691Z,3.27
2023-11-28T23:42:10.660Z,3.34
2023-11-28T23:43:10.672Z,3.30
2023-11-28T23:44:10.767Z,3.34
2023-11-28T23:45:10.757Z,3.34
2023-11-28T23:46:10.807Z,3.30
2023-11-28T23:47:10.845Z,3.28
2023-11-28T23:48:10.975Z,3.20
2023-11-28T23:49:10.997Z,3.09
2023-11-28T23:50:10.980Z,3.10
2023-11-28T23:51:10.996Z,3.13
2023-11-28T23:52:11.076Z,3.05
2023-11-28T23:53:11.154Z,3.06
2023-11-28T23:54:11.140Z,3.00
2023-11-28T23:55:11.161Z,3.02
2023-11-28T23:56:11.225Z,3.02
2023-11-28T23:57:11.237Z,2.97
2023-11-28T23:58:11.262Z,2.98
